Cash, South Dakota
Current Conditions -  °F | °C
As of 2:53 PM on Wednesday 28 Jan 2015 (Local Time) from KHEI Reporting Station
Overcast Overcast  
Wind Chill: 18°   Ceiling: 600
Heat Index: 32°   Visibility: 7mi
Dew Point: 28°   Wind: 28mph
Humidity: 85%   Direction: 320°NW
Pressure: 30"   Gusts: 37mph
Location:  45.5161°N, 102.519°W
Report Text: KHEI 282153Z AUTO 32024G32KT 7SM OVC006 00/M02 A3000 RMK AO2 PK WND 32038/2125 SLP184 T00001022
Loading
Personal Weather Stations






























Interactive Weather Map New forecast layout! Learn more

10-Day Weather Forecast

Advertisements
Track Severe Weather on mobile